sensor_id;sensor_type;location;lat;lon;timestamp;temperature;humidity
19813;DHT22;10066;48.108;11.448;2022-12-07T00:00:46;3.00;99.90
19813;DHT22;10066;48.108;11.448;2022-12-07T00:03:12;3.10;99.90
19813;DHT22;10066;48.108;11.448;2022-12-07T00:05:39;3.10;99.90
19813;DHT22;10066;48.108;11.448;2022-12-07T00:08:06;3.10;99.90
19813;DHT22;10066;48.108;11.448;2022-12-07T00:10:33;3.20;99.90
19813;DHT22;10066;48.108;11.448;2022-12-07T00:13:00;3.20;99.90
19813;DHT22;10066;48.108;11.448;2022-12-07T00:15:27;3.30;99.90
19813;DHT22;10066;48.108;11.448;2022-12-07T00:17:55;3.30;99.90
19813;DHT22;10066;48.108;11.448;2022-12-07T00:20:22;3.30;99.90
19813;DHT22;10066;48.108;11.448;2022-12-07T00:22:49;3.30;99.90
19813;DHT22;10066;48.108;11.448;2022-12-07T00:25:17;3.40;99.90
19813;DHT22;10066;48.108;11.448;2022-12-07T00:27:44;3.30;99.90
19813;DHT22;10066;48.108;11.448;2022-12-07T00:30:11;3.30;99.90
19813;DHT22;10066;48.108;11.448;2022-12-07T00:32:38;3.20;99.90
19813;DHT22;10066;48.108;11.448;2022-12-07T00:35:07;3.30;99.90
19813;DHT22;10066;48.108;11.448;2022-12-07T00:37:34;3.30;99.90
19813;DHT22;10066;48.108;11.448;2022-12-07T00:40:01;3.20;99.90
19813;DHT22;10066;48.108;11.448;2022-12-07T00:42:28;3.20;99.90
19813;DHT22;10066;48.108;11.448;2022-12-07T00:44:55;3.20;99.90
19813;DHT22;10066;48.108;11.448;2022-12-07T00:47:22;3.20;99.90
19813;DHT22;10066;48.108;11.448;2022-12-07T00:49:49;3.20;99.90
19813;DHT22;10066;48.108;11.448;2022-12-07T00:52:17;3.20;99.90
19813;DHT22;10066;48.108;11.448;2022-12-07T00:54:45;3.10;99.90
19813;DHT22;10066;48.108;11.448;2022-12-07T00:57:12;3.10;99.90
19813;DHT22;10066;48.108;11.448;2022-12-07T00:59:38;3.10;99.90
19813;DHT22;10066;48.108;11.448;2022-12-07T01:02:05;3.10;99.90
19813;DHT22;10066;48.108;11.448;2022-12-07T01:04:33;3.00;99.90
19813;DHT22;10066;48.108;11.448;2022-12-07T01:07:00;3.00;99.90
19813;DHT22;10066;48.108;11.448;2022-12-07T01:09:29;3.00;99.90
19813;DHT22;10066;48.108;11.448;2022-12-07T01:11:56;3.00;99.90
19813;DHT22;10066;48.108;11.448;2022-12-07T01:14:23;3.00;99.90
19813;DHT22;10066;48.108;11.448;2022-12-07T01:16:49;3.00;99.90
19813;DHT22;10066;48.108;11.448;2022-12-07T01:19:16;3.00;99.90
19813;DHT22;10066;48.108;11.448;2022-12-07T01:21:43;3.10;99.90
19813;DHT22;10066;48.108;11.448;2022-12-07T01:24:11;3.10;99.90
19813;DHT22;10066;48.108;11.448;2022-12-07T01:26:39;3.10;99.90
19813;DHT22;10066;48.108;11.448;2022-12-07T01:29:06;3.10;99.90
19813;DHT22;10066;48.108;11.448;2022-12-07T01:31:35;3.10;99.90
19813;DHT22;10066;48.108;11.448;2022-12-07T01:34:02;3.20;99.90
19813;DHT22;10066;48.108;11.448;2022-12-07T01:36:32;3.20;99.90
19813;DHT22;10066;48.108;11.448;2022-12-07T01:39:00;3.20;99.90
19813;DHT22;10066;48.108;11.448;2022-12-07T01:41:30;3.20;99.90
19813;DHT22;10066;48.108;11.448;2022-12-07T01:44:19;3.20;99.90
19813;DHT22;10066;48.108;11.448;2022-12-07T01:46:48;3.20;99.90
19813;DHT22;10066;48.108;11.448;2022-12-07T01:49:26;3.30;99.90
19813;DHT22;10066;48.108;11.448;2022-12-07T01:51:58;3.30;99.90
19813;DHT22;10066;48.108;11.448;2022-12-07T01:54:28;3.30;99.90
19813;DHT22;10066;48.108;11.448;2022-12-07T01:56:56;3.40;99.90
19813;DHT22;10066;48.108;11.448;2022-12-07T01:59:25;3.40;99.90
19813;DHT22;10066;48.108;11.448;2022-12-07T02:01:53;3.40;99.90
19813;DHT22;10066;48.108;11.448;2022-12-07T02:04:22;3.40;99.90
19813;DHT22;10066;48.108;11.448;2022-12-07T02:06:49;3.30;99.90
19813;DHT22;10066;48.108;11.448;2022-12-07T02:09:17;3.30;99.90
19813;DHT22;10066;48.108;11.448;2022-12-07T02:11:45;3.40;99.90
19813;DHT22;10066;48.108;11.448;2022-12-07T02:14:12;3.40;99.90
19813;DHT22;10066;48.108;11.448;2022-12-07T02:16:51;3.30;99.90
19813;DHT22;10066;48.108;11.448;2022-12-07T02:19:45;3.40;99.90
19813;DHT22;10066;48.108;11.448;2022-12-07T02:22:28;3.40;99.90
19813;DHT22;10066;48.108;11.448;2022-12-07T02:25:06;3.30;99.90
19813;DHT22;10066;48.108;11.448;2022-12-07T02:27:39;3.20;99.90
19813;DHT22;10066;48.108;11.448;2022-12-07T02:30:12;3.30;99.90
19813;DHT22;10066;48.108;11.448;2022-12-07T02:32:44;3.30;99.90
19813;DHT22;10066;48.108;11.448;2022-12-07T02:35:17;3.30;99.90
19813;DHT22;10066;48.108;11.448;2022-12-07T02:37:53;3.30;99.90
19813;DHT22;10066;48.108;11.448;2022-12-07T02:40:27;3.30;99.90
19813;DHT22;10066;48.108;11.448;2022-12-07T02:42:59;3.30;99.90
19813;DHT22;10066;48.108;11.448;2022-12-07T02:45:31;3.30;99.90
19813;DHT22;10066;48.108;11.448;2022-12-07T02:47:59;3.40;99.90
19813;DHT22;10066;48.108;11.448;2022-12-07T02:50:28;3.40;99.90
19813;DHT22;10066;48.108;11.448;2022-12-07T02:52:55;3.40;99.90
19813;DHT22;10066;48.108;11.448;2022-12-07T02:55:28;3.40;99.90
19813;DHT22;10066;48.108;11.448;2022-12-07T02:58:14;3.40;99.90
19813;DHT22;10066;48.108;11.448;2022-12-07T03:00:52;3.40;99.90
19813;DHT22;10066;48.108;11.448;2022-12-07T03:03:23;3.40;99.90
19813;DHT22;10066;48.108;11.448;2022-12-07T03:08:46;3.40;99.90
19813;DHT22;10066;48.108;11.448;2022-12-07T03:11:18;3.40;99.90
19813;DHT22;10066;48.108;11.448;2022-12-07T03:13:50;3.50;99.90
19813;DHT22;10066;48.108;11.448;2022-12-07T03:16:25;3.50;99.90
19813;DHT22;10066;48.108;11.448;2022-12-07T03:18:56;3.60;99.90
19813;DHT22;10066;48.108;11.448;2022-12-07T03:21:31;3.60;99.90
19813;DHT22;10066;48.108;11.448;2022-12-07T03:24:01;3.60;99.90
19813;DHT22;10066;48.108;11.448;2022-12-07T03:26:33;3.60;99.90
19813;DHT22;10066;48.108;11.448;2022-12-07T03:29:06;3.60;99.90
19813;DHT22;10066;48.108;11.448;2022-12-07T03:31:38;3.70;99.90
19813;DHT22;10066;48.108;11.448;2022-12-07T03:34:10;3.70;99.90
19813;DHT22;10066;48.108;11.448;2022-12-07T03:36:43;3.80;99.90
19813;DHT22;10066;48.108;11.448;2022-12-07T03:39:19;3.80;99.90
19813;DHT22;10066;48.108;11.448;2022-12-07T03:41:46;3.80;99.90
19813;DHT22;10066;48.108;11.448;2022-12-07T03:44:14;3.80;99.90
19813;DHT22;10066;48.108;11.448;2022-12-07T03:46:50;3.70;99.90
19813;DHT22;10066;48.108;11.448;2022-12-07T03:49:23;3.70;99.90
19813;DHT22;10066;48.108;11.448;2022-12-07T03:51:54;3.70;99.90
19813;DHT22;10066;48.108;11.448;2022-12-07T03:54:26;3.60;99.90
19813;DHT22;10066;48.108;11.448;2022-12-07T03:56:56;3.50;99.90
19813;DHT22;10066;48.108;11.448;2022-12-07T03:59:24;3.50;99.90
19813;DHT22;10066;48.108;11.448;2022-12-07T04:01:55;3.50;99.90
19813;DHT22;10066;48.108;11.448;2022-12-07T04:04:22;3.40;99.90
19813;DHT22;10066;48.108;11.448;2022-12-07T04:06:49;3.30;99.90
19813;DHT22;10066;48.108;11.448;2022-12-07T04:09:17;3.20;99.90
19813;DHT22;10066;48.108;11.448;2022-12-07T04:11:44;3.20;99.90
19813;DHT22;10066;48.108;11.448;2022-12-07T04:14:11;3.10;99.90
19813;DHT22;10066;48.108;11.448;2022-12-07T04:16:48;3.10;99.90
19813;DHT22;10066;48.108;11.448;2022-12-07T04:19:17;3.00;99.90
19813;DHT22;10066;48.108;11.448;2022-12-07T04:21:44;3.00;99.90
19813;DHT22;10066;48.108;11.448;2022-12-07T04:24:12;3.00;99.90
19813;DHT22;10066;48.108;11.448;2022-12-07T04:26:39;2.90;99.90
19813;DHT22;10066;48.108;11.448;2022-12-07T04:29:06;2.80;99.90
19813;DHT22;10066;48.108;11.448;2022-12-07T04:31:33;2.90;99.90
19813;DHT22;10066;48.108;11.448;2022-12-07T04:34:00;2.90;99.90
19813;DHT22;10066;48.108;11.448;2022-12-07T04:36:28;2.90;99.90
19813;DHT22;10066;48.108;11.448;2022-12-07T04:38:55;2.90;99.90
19813;DHT22;10066;48.108;11.448;2022-12-07T04:41:23;2.90;99.90
19813;DHT22;10066;48.108;11.448;2022-12-07T04:43:53;3.00;99.90
19813;DHT22;10066;48.108;11.448;2022-12-07T04:46:20;3.00;99.90
19813;DHT22;10066;48.108;11.448;2022-12-07T04:48:48;3.00;99.90
19813;DHT22;10066;48.108;11.448;2022-12-07T04:51:16;2.90;99.90
19813;DHT22;10066;48.108;11.448;2022-12-07T04:53:46;3.00;99.90
19813;DHT22;10066;48.108;11.448;2022-12-07T04:56:14;2.90;99.90
19813;DHT22;10066;48.108;11.448;2022-12-07T04:58:41;2.90;99.90
19813;DHT22;10066;48.108;11.448;2022-12-07T05:01:08;2.90;99.90
19813;DHT22;10066;48.108;11.448;2022-12-07T05:03:36;2.90;99.90
19813;DHT22;10066;48.108;11.448;2022-12-07T05:06:03;2.90;99.90
19813;DHT22;10066;48.108;11.448;2022-12-07T05:08:31;2.90;99.90
19813;DHT22;10066;48.108;11.448;2022-12-07T05:11:00;2.90;99.90
19813;DHT22;10066;48.108;11.448;2022-12-07T05:13:27;2.90;99.90
19813;DHT22;10066;48.108;11.448;2022-12-07T05:15:54;3.00;99.90
19813;DHT22;10066;48.108;11.448;2022-12-07T05:18:21;3.00;99.90
19813;DHT22;10066;48.108;11.448;2022-12-07T05:20:48;3.00;99.90
19813;DHT22;10066;48.108;11.448;2022-12-07T05:23:16;3.00;99.90
19813;DHT22;10066;48.108;11.448;2022-12-07T05:25:43;3.00;99.90
19813;DHT22;10066;48.108;11.448;2022-12-07T05:28:12;3.10;99.90
19813;DHT22;10066;48.108;11.448;2022-12-07T05:30:39;3.10;99.90
19813;DHT22;10066;48.108;11.448;2022-12-07T05:33:07;3.00;99.90
19813;DHT22;10066;48.108;11.448;2022-12-07T05:35:34;3.00;99.90
19813;DHT22;10066;48.108;11.448;2022-12-07T05:38:03;3.10;99.90
19813;DHT22;10066;48.108;11.448;2022-12-07T05:40:30;3.10;99.90
19813;DHT22;10066;48.108;11.448;2022-12-07T05:43:00;3.10;99.90
19813;DHT22;10066;48.108;11.448;2022-12-07T05:45:29;3.20;99.90
19813;DHT22;10066;48.108;11.448;2022-12-07T05:47:56;3.20;99.90
19813;DHT22;10066;48.108;11.448;2022-12-07T05:50:23;3.10;99.90
19813;DHT22;10066;48.108;11.448;2022-12-07T05:52:50;3.10;99.90
19813;DHT22;10066;48.108;11.448;2022-12-07T05:55:17;3.10;99.90
19813;DHT22;10066;48.108;11.448;2022-12-07T05:57:44;3.00;99.90
19813;DHT22;10066;48.108;11.448;2022-12-07T06:00:32;3.00;99.90
19813;DHT22;10066;48.108;11.448;2022-12-07T06:02:59;3.10;99.90
19813;DHT22;10066;48.108;11.448;2022-12-07T06:05:28;3.10;99.90
19813;DHT22;10066;48.108;11.448;2022-12-07T06:07:55;3.10;99.90
19813;DHT22;10066;48.108;11.448;2022-12-07T06:10:23;3.10;99.90
19813;DHT22;10066;48.108;11.448;2022-12-07T06:12:49;3.10;99.90
19813;DHT22;10066;48.108;11.448;2022-12-07T06:15:15;3.00;99.90
19813;DHT22;10066;48.108;11.448;2022-12-07T06:17:44;2.90;99.90
19813;DHT22;10066;48.108;11.448;2022-12-07T06:20:11;2.80;99.90
19813;DHT22;10066;48.108;11.448;2022-12-07T06:22:37;2.80;99.90
19813;DHT22;10066;48.108;11.448;2022-12-07T06:25:05;2.90;99.90
19813;DHT22;10066;48.108;11.448;2022-12-07T06:27:32;2.90;99.90
19813;DHT22;10066;48.108;11.448;2022-12-07T06:30:00;2.90;99.90
19813;DHT22;10066;48.108;11.448;2022-12-07T06:32:31;2.90;99.90
19813;DHT22;10066;48.108;11.448;2022-12-07T06:35:00;2.90;99.90
19813;DHT22;10066;48.108;11.448;2022-12-07T06:37:27;3.00;99.90
19813;DHT22;10066;48.108;11.448;2022-12-07T06:39:54;3.00;99.90
19813;DHT22;10066;48.108;11.448;2022-12-07T06:42:21;3.00;99.90
19813;DHT22;10066;48.108;11.448;2022-12-07T06:44:48;3.10;99.90
19813;DHT22;10066;48.108;11.448;2022-12-07T06:47:15;3.10;99.90
19813;DHT22;10066;48.108;11.448;2022-12-07T06:49:42;3.10;99.90
19813;DHT22;10066;48.108;11.448;2022-12-07T06:52:10;3.10;99.90
19813;DHT22;10066;48.108;11.448;2022-12-07T06:54:37;3.10;99.90
19813;DHT22;10066;48.108;11.448;2022-12-07T06:57:04;3.10;99.90
19813;DHT22;10066;48.108;11.448;2022-12-07T06:59:32;3.10;99.90
19813;DHT22;10066;48.108;11.448;2022-12-07T07:01:59;3.10;99.90
19813;DHT22;10066;48.108;11.448;2022-12-07T07:04:26;3.20;99.90
19813;DHT22;10066;48.108;11.448;2022-12-07T07:06:53;3.20;99.90
19813;DHT22;10066;48.108;11.448;2022-12-07T07:09:21;3.20;99.90
19813;DHT22;10066;48.108;11.448;2022-12-07T07:11:48;3.20;99.90
19813;DHT22;10066;48.108;11.448;2022-12-07T07:14:15;3.20;99.90
19813;DHT22;10066;48.108;11.448;2022-12-07T07:16:44;3.20;99.90
19813;DHT22;10066;48.108;11.448;2022-12-07T07:19:11;3.20;99.90
19813;DHT22;10066;48.108;11.448;2022-12-07T07:21:38;3.20;99.90
19813;DHT22;10066;48.108;11.448;2022-12-07T07:24:06;3.20;99.90
19813;DHT22;10066;48.108;11.448;2022-12-07T07:26:34;3.20;99.90
19813;DHT22;10066;48.108;11.448;2022-12-07T07:29:01;3.20;99.90
19813;DHT22;10066;48.108;11.448;2022-12-07T07:31:28;3.20;99.90
19813;DHT22;10066;48.108;11.448;2022-12-07T07:33:55;3.20;99.90
19813;DHT22;10066;48.108;11.448;2022-12-07T07:36:21;3.20;99.90
19813;DHT22;10066;48.108;11.448;2022-12-07T07:38:48;3.20;99.90
19813;DHT22;10066;48.108;11.448;2022-12-07T07:41:15;3.20;99.90
19813;DHT22;10066;48.108;11.448;2022-12-07T07:43:44;3.20;99.90
19813;DHT22;10066;48.108;11.448;2022-12-07T07:46:10;3.30;99.90
19813;DHT22;10066;48.108;11.448;2022-12-07T07:48:37;3.20;99.90
19813;DHT22;10066;48.108;11.448;2022-12-07T07:51:05;3.20;99.90
19813;DHT22;10066;48.108;11.448;2022-12-07T07:53:33;3.30;99.90
19813;DHT22;10066;48.108;11.448;2022-12-07T07:55:59;3.30;99.90
19813;DHT22;10066;48.108;11.448;2022-12-07T07:58:27;3.30;99.90
19813;DHT22;10066;48.108;11.448;2022-12-07T08:00:56;3.30;99.90
19813;DHT22;10066;48.108;11.448;2022-12-07T08:03:23;3.30;99.90
19813;DHT22;10066;48.108;11.448;2022-12-07T08:05:51;3.30;99.90
19813;DHT22;10066;48.108;11.448;2022-12-07T08:08:18;3.30;99.90
19813;DHT22;10066;48.108;11.448;2022-12-07T08:10:45;3.40;99.90
19813;DHT22;10066;48.108;11.448;2022-12-07T08:13:11;3.40;99.90
19813;DHT22;10066;48.108;11.448;2022-12-07T08:15:40;3.40;99.90
19813;DHT22;10066;48.108;11.448;2022-12-07T08:18:09;3.40;99.90
19813;DHT22;10066;48.108;11.448;2022-12-07T08:20:37;3.40;99.90
19813;DHT22;10066;48.108;11.448;2022-12-07T08:23:04;3.40;99.90
19813;DHT22;10066;48.108;11.448;2022-12-07T08:25:31;3.40;99.90
19813;DHT22;10066;48.108;11.448;2022-12-07T08:27:58;3.40;99.90
19813;DHT22;10066;48.108;11.448;2022-12-07T08:30:26;3.40;99.90
19813;DHT22;10066;48.108;11.448;2022-12-07T08:32:53;3.40;99.90
19813;DHT22;10066;48.108;11.448;2022-12-07T08:35:23;3.50;99.90
19813;DHT22;10066;48.108;11.448;2022-12-07T08:37:51;3.50;99.90
19813;DHT22;10066;48.108;11.448;2022-12-07T08:40:18;3.50;99.90
19813;DHT22;10066;48.108;11.448;2022-12-07T08:42:48;3.50;99.90
19813;DHT22;10066;48.108;11.448;2022-12-07T08:45:16;3.50;99.90
19813;DHT22;10066;48.108;11.448;2022-12-07T08:47:46;3.60;99.90
19813;DHT22;10066;48.108;11.448;2022-12-07T08:50:14;3.60;99.90
19813;DHT22;10066;48.108;11.448;2022-12-07T08:52:49;3.60;99.90
19813;DHT22;10066;48.108;11.448;2022-12-07T08:55:18;3.60;99.90
19813;DHT22;10066;48.108;11.448;2022-12-07T08:57:46;3.70;99.90
19813;DHT22;10066;48.108;11.448;2022-12-07T09:00:14;3.70;99.90
19813;DHT22;10066;48.108;11.448;2022-12-07T09:02:43;3.80;99.90
19813;DHT22;10066;48.108;11.448;2022-12-07T09:05:14;3.80;99.90
19813;DHT22;10066;48.108;11.448;2022-12-07T09:07:43;3.90;99.90
19813;DHT22;10066;48.108;11.448;2022-12-07T09:10:12;4.00;99.90
19813;DHT22;10066;48.108;11.448;2022-12-07T09:12:39;4.00;99.90
19813;DHT22;10066;48.108;11.448;2022-12-07T09:15:07;4.10;99.90
19813;DHT22;10066;48.108;11.448;2022-12-07T09:17:35;4.10;99.90
19813;DHT22;10066;48.108;11.448;2022-12-07T09:20:04;4.10;99.90
19813;DHT22;10066;48.108;11.448;2022-12-07T09:22:31;4.10;99.90
19813;DHT22;10066;48.108;11.448;2022-12-07T09:25:00;4.10;99.90
19813;DHT22;10066;48.108;11.448;2022-12-07T09:27:27;4.10;99.90
19813;DHT22;10066;48.108;11.448;2022-12-07T09:29:54;4.20;99.90
19813;DHT22;10066;48.108;11.448;2022-12-07T09:32:22;4.10;99.90
19813;DHT22;10066;48.108;11.448;2022-12-07T09:34:49;4.20;99.90
19813;DHT22;10066;48.108;11.448;2022-12-07T09:37:16;4.20;99.90
19813;DHT22;10066;48.108;11.448;2022-12-07T09:39:43;4.20;99.90
19813;DHT22;10066;48.108;11.448;2022-12-07T09:42:19;4.20;99.90
19813;DHT22;10066;48.108;11.448;2022-12-07T09:44:50;4.30;99.90
19813;DHT22;10066;48.108;11.448;2022-12-07T09:47:17;4.30;99.90
19813;DHT22;10066;48.108;11.448;2022-12-07T09:49:44;4.40;99.90
19813;DHT22;10066;48.108;11.448;2022-12-07T09:52:19;4.40;99.90
19813;DHT22;10066;48.108;11.448;2022-12-07T09:54:49;4.40;99.90
19813;DHT22;10066;48.108;11.448;2022-12-07T09:57:20;4.50;99.90
19813;DHT22;10066;48.108;11.448;2022-12-07T09:59:48;4.60;99.90
19813;DHT22;10066;48.108;11.448;2022-12-07T10:02:25;4.70;99.90
19813;DHT22;10066;48.108;11.448;2022-12-07T10:04:55;4.70;99.90
19813;DHT22;10066;48.108;11.448;2022-12-07T10:07:24;4.80;99.90
19813;DHT22;10066;48.108;11.448;2022-12-07T10:09:51;4.80;99.90
19813;DHT22;10066;48.108;11.448;2022-12-07T10:12:21;4.80;99.90
19813;DHT22;10066;48.108;11.448;2022-12-07T10:14:55;4.90;99.90
19813;DHT22;10066;48.108;11.448;2022-12-07T10:17:32;4.90;99.90
19813;DHT22;10066;48.108;11.448;2022-12-07T10:20:13;4.90;99.90
19813;DHT22;10066;48.108;11.448;2022-12-07T10:22:54;4.90;99.90
19813;DHT22;10066;48.108;11.448;2022-12-07T10:25:24;5.00;99.90
19813;DHT22;10066;48.108;11.448;2022-12-07T10:28:11;5.00;99.90
19813;DHT22;10066;48.108;11.448;2022-12-07T10:30:57;5.00;99.90
19813;DHT22;10066;48.108;11.448;2022-12-07T10:33:33;5.00;99.90
19813;DHT22;10066;48.108;11.448;2022-12-07T10:36:09;5.10;99.90
19813;DHT22;10066;48.108;11.448;2022-12-07T10:38:45;5.10;99.90
19813;DHT22;10066;48.108;11.448;2022-12-07T10:41:12;5.10;99.90
19813;DHT22;10066;48.108;11.448;2022-12-07T10:43:50;5.10;99.90
19813;DHT22;10066;48.108;11.448;2022-12-07T10:52:18;5.20;99.90
19813;DHT22;10066;48.108;11.448;2022-12-07T10:54:56;5.30;99.90
19813;DHT22;10066;48.108;11.448;2022-12-07T10:57:39;5.30;99.90
19813;DHT22;10066;48.108;11.448;2022-12-07T11:05:39;5.40;99.90
19813;DHT22;10066;48.108;11.448;2022-12-07T11:08:16;5.40;99.90
19813;DHT22;10066;48.108;11.448;2022-12-07T11:10:50;5.40;99.90
19813;DHT22;10066;48.108;11.448;2022-12-07T11:13:25;5.30;99.90
19813;DHT22;10066;48.108;11.448;2022-12-07T11:16:23;5.20;99.90
19813;DHT22;10066;48.108;11.448;2022-12-07T11:19:03;5.10;99.90
19813;DHT22;10066;48.108;11.448;2022-12-07T11:21:39;5.10;99.90
19813;DHT22;10066;48.108;11.448;2022-12-07T11:24:14;5.00;99.90
19813;DHT22;10066;48.108;11.448;2022-12-07T11:26:53;5.10;99.90
19813;DHT22;10066;48.108;11.448;2022-12-07T11:29:33;5.10;99.90
19813;DHT22;10066;48.108;11.448;2022-12-07T11:32:15;5.20;99.90
19813;DHT22;10066;48.108;11.448;2022-12-07T11:34:52;5.20;99.90
19813;DHT22;10066;48.108;11.448;2022-12-07T11:37:28;5.20;99.90
19813;DHT22;10066;48.108;11.448;2022-12-07T11:40:00;5.30;99.90
19813;DHT22;10066;48.108;11.448;2022-12-07T11:42:31;5.30;99.90
19813;DHT22;10066;48.108;11.448;2022-12-07T11:45:04;5.40;99.90
19813;DHT22;10066;48.108;11.448;2022-12-07T11:47:45;5.40;99.90
19813;DHT22;10066;48.108;11.448;2022-12-07T11:50:25;5.40;99.90
19813;DHT22;10066;48.108;11.448;2022-12-07T11:52:55;5.40;99.90
19813;DHT22;10066;48.108;11.448;2022-12-07T11:55:27;5.40;99.90
19813;DHT22;10066;48.108;11.448;2022-12-07T11:58:03;5.40;99.90
19813;DHT22;10066;48.108;11.448;2022-12-07T12:00:31;5.40;99.90
19813;DHT22;10066;48.108;11.448;2022-12-07T12:03:03;5.30;99.90
19813;DHT22;10066;48.108;11.448;2022-12-07T12:05:31;5.30;99.90
19813;DHT22;10066;48.108;11.448;2022-12-07T12:08:03;5.30;99.90
19813;DHT22;10066;48.108;11.448;2022-12-07T12:10:42;5.40;99.90
19813;DHT22;10066;48.108;11.448;2022-12-07T12:13:24;5.50;99.90
19813;DHT22;10066;48.108;11.448;2022-12-07T12:16:06;5.50;99.90
19813;DHT22;10066;48.108;11.448;2022-12-07T12:18:52;5.60;99.90
19813;DHT22;10066;48.108;11.448;2022-12-07T12:21:27;5.70;99.90
19813;DHT22;10066;48.108;11.448;2022-12-07T12:23:58;5.80;99.90
19813;DHT22;10066;48.108;11.448;2022-12-07T12:26:29;5.90;99.90
19813;DHT22;10066;48.108;11.448;2022-12-07T12:28:58;5.90;99.90
19813;DHT22;10066;48.108;11.448;2022-12-07T12:31:33;5.90;99.90
19813;DHT22;10066;48.108;11.448;2022-12-07T12:36:55;6.00;99.90
19813;DHT22;10066;48.108;11.448;2022-12-07T12:39:22;5.90;99.90
19813;DHT22;10066;48.108;11.448;2022-12-07T12:41:58;5.90;99.90
19813;DHT22;10066;48.108;11.448;2022-12-07T12:47:53;5.90;99.90
19813;DHT22;10066;48.108;11.448;2022-12-07T12:50:24;5.90;99.90
19813;DHT22;10066;48.108;11.448;2022-12-07T12:53:14;6.00;99.90
19813;DHT22;10066;48.108;11.448;2022-12-07T12:56:15;6.00;99.90
19813;DHT22;10066;48.108;11.448;2022-12-07T12:58:48;6.00;99.90
19813;DHT22;10066;48.108;11.448;2022-12-07T13:01:45;5.90;99.90
19813;DHT22;10066;48.108;11.448;2022-12-07T13:04:18;5.90;99.90
19813;DHT22;10066;48.108;11.448;2022-12-07T13:06:50;5.90;99.90
19813;DHT22;10066;48.108;11.448;2022-12-07T13:09:20;5.90;99.90
19813;DHT22;10066;48.108;11.448;2022-12-07T13:11:49;5.80;99.90
19813;DHT22;10066;48.108;11.448;2022-12-07T13:14:39;5.80;99.90
19813;DHT22;10066;48.108;11.448;2022-12-07T13:17:08;5.80;99.90
19813;DHT22;10066;48.108;11.448;2022-12-07T13:19:58;5.80;99.90
19813;DHT22;10066;48.108;11.448;2022-12-07T13:22:53;5.70;99.90
19813;DHT22;10066;48.108;11.448;2022-12-07T13:25:36;5.70;99.90
19813;DHT22;10066;48.108;11.448;2022-12-07T13:28:14;5.80;99.90
19813;DHT22;10066;48.108;11.448;2022-12-07T13:33:29;5.70;99.90
19813;DHT22;10066;48.108;11.448;2022-12-07T13:35:57;5.80;99.90
19813;DHT22;10066;48.108;11.448;2022-12-07T13:38:29;5.80;99.90
19813;DHT22;10066;48.108;11.448;2022-12-07T13:41:03;5.80;99.90
19813;DHT22;10066;48.108;11.448;2022-12-07T13:43:31;5.80;99.90
19813;DHT22;10066;48.108;11.448;2022-12-07T13:45:59;5.80;99.90
19813;DHT22;10066;48.108;11.448;2022-12-07T13:48:31;5.70;99.90
19813;DHT22;10066;48.108;11.448;2022-12-07T13:51:00;5.70;99.90
19813;DHT22;10066;48.108;11.448;2022-12-07T13:53:29;5.60;99.90
19813;DHT22;10066;48.108;11.448;2022-12-07T13:55:57;5.50;99.90
19813;DHT22;10066;48.108;11.448;2022-12-07T13:58:25;5.50;99.90
19813;DHT22;10066;48.108;11.448;2022-12-07T14:00:53;5.50;99.90
19813;DHT22;10066;48.108;11.448;2022-12-07T14:03:28;5.50;99.90
19813;DHT22;10066;48.108;11.448;2022-12-07T14:06:23;5.60;99.90
19813;DHT22;10066;48.108;11.448;2022-12-07T14:09:08;5.50;99.90
19813;DHT22;10066;48.108;11.448;2022-12-07T14:11:35;5.50;99.90
19813;DHT22;10066;48.108;11.448;2022-12-07T14:14:04;5.50;99.90
19813;DHT22;10066;48.108;11.448;2022-12-07T14:16:33;5.50;99.90
19813;DHT22;10066;48.108;11.448;2022-12-07T14:19:02;5.40;99.90
19813;DHT22;10066;48.108;11.448;2022-12-07T14:21:32;5.40;99.90
19813;DHT22;10066;48.108;11.448;2022-12-07T14:24:18;5.40;99.90
19813;DHT22;10066;48.108;11.448;2022-12-07T14:26:47;5.40;99.90
19813;DHT22;10066;48.108;11.448;2022-12-07T14:29:32;5.30;99.90
19813;DHT22;10066;48.108;11.448;2022-12-07T14:32:18;5.30;99.90
19813;DHT22;10066;48.108;11.448;2022-12-07T14:35:00;5.20;99.90
19813;DHT22;10066;48.108;11.448;2022-12-07T14:37:28;5.20;99.90
19813;DHT22;10066;48.108;11.448;2022-12-07T14:39:57;5.10;99.90
19813;DHT22;10066;48.108;11.448;2022-12-07T14:42:27;5.00;99.90
19813;DHT22;10066;48.108;11.448;2022-12-07T14:44:55;4.90;99.90
19813;DHT22;10066;48.108;11.448;2022-12-07T14:47:22;4.80;99.90
19813;DHT22;10066;48.108;11.448;2022-12-07T14:49:50;4.70;99.90
19813;DHT22;10066;48.108;11.448;2022-12-07T14:52:19;4.70;99.90
19813;DHT22;10066;48.108;11.448;2022-12-07T14:54:47;4.60;99.90
19813;DHT22;10066;48.108;11.448;2022-12-07T14:57:15;4.50;99.90
19813;DHT22;10066;48.108;11.448;2022-12-07T14:59:42;4.40;99.90
19813;DHT22;10066;48.108;11.448;2022-12-07T15:02:11;4.30;99.90
19813;DHT22;10066;48.108;11.448;2022-12-07T15:04:39;4.20;99.90
19813;DHT22;10066;48.108;11.448;2022-12-07T15:07:10;4.10;99.90
19813;DHT22;10066;48.108;11.448;2022-12-07T15:09:39;4.00;99.90
19813;DHT22;10066;48.108;11.448;2022-12-07T15:12:06;3.90;99.90
19813;DHT22;10066;48.108;11.448;2022-12-07T15:14:36;3.80;99.90
19813;DHT22;10066;48.108;11.448;2022-12-07T15:17:03;3.70;99.90
19813;DHT22;10066;48.108;11.448;2022-12-07T15:19:30;3.60;99.90
19813;DHT22;10066;48.108;11.448;2022-12-07T15:21:58;3.50;99.90
19813;DHT22;10066;48.108;11.448;2022-12-07T15:24:26;3.40;99.90
19813;DHT22;10066;48.108;11.448;2022-12-07T15:26:55;3.20;99.90
19813;DHT22;10066;48.108;11.448;2022-12-07T15:29:23;3.10;99.90
19813;DHT22;10066;48.108;11.448;2022-12-07T15:31:52;3.00;99.90
19813;DHT22;10066;48.108;11.448;2022-12-07T15:34:20;2.90;99.90
19813;DHT22;10066;48.108;11.448;2022-12-07T15:36:47;2.80;99.90
19813;DHT22;10066;48.108;11.448;2022-12-07T15:39:14;2.70;99.90
19813;DHT22;10066;48.108;11.448;2022-12-07T15:41:41;2.70;99.90
19813;DHT22;10066;48.108;11.448;2022-12-07T15:44:10;2.50;99.90
19813;DHT22;10066;48.108;11.448;2022-12-07T15:47:10;2.50;99.90
19813;DHT22;10066;48.108;11.448;2022-12-07T15:49:38;2.40;99.90
19813;DHT22;10066;48.108;11.448;2022-12-07T15:52:04;2.40;99.90
19813;DHT22;10066;48.108;11.448;2022-12-07T15:54:32;2.40;99.90
19813;DHT22;10066;48.108;11.448;2022-12-07T15:56:58;2.40;99.90
19813;DHT22;10066;48.108;11.448;2022-12-07T15:59:26;2.40;99.90
19813;DHT22;10066;48.108;11.448;2022-12-07T16:01:53;2.40;99.90
19813;DHT22;10066;48.108;11.448;2022-12-07T16:04:22;2.50;99.90
19813;DHT22;10066;48.108;11.448;2022-12-07T16:06:49;2.50;99.90
19813;DHT22;10066;48.108;11.448;2022-12-07T16:09:16;2.50;99.90
19813;DHT22;10066;48.108;11.448;2022-12-07T16:11:43;2.50;99.90
19813;DHT22;10066;48.108;11.448;2022-12-07T16:14:10;2.50;99.90